createdAt,value
2023-11-27T00:02:02.268Z,15.29
2023-11-27T00:04:50.292Z,15.32
2023-11-27T00:07:37.855Z,15.32
2023-11-27T00:10:25.371Z,15.33
2023-11-27T00:13:12.927Z,15.34
2023-11-27T00:16:00.605Z,15.34
2023-11-27T00:18:48.385Z,15.36
2023-11-27T00:21:36.024Z,15.36
2023-11-27T00:24:23.539Z,15.36
2023-11-27T00:27:12.508Z,15.36
2023-11-27T00:30:00.976Z,15.21
2023-11-27T00:32:48.522Z,15.25
2023-11-27T00:35:36.600Z,15.31
2023-11-27T00:38:24.187Z,15.31
2023-11-27T00:41:15.755Z,15.32
2023-11-27T00:44:04.159Z,15.34
2023-11-27T00:46:51.667Z,15.33
2023-11-27T00:49:39.221Z,15.34
2023-11-27T00:52:26.711Z,15.34
2023-11-27T00:55:15.236Z,15.36
2023-11-27T00:58:02.879Z,15.37
2023-11-27T01:00:50.489Z,15.35
2023-11-27T01:03:38.042Z,15.34
2023-11-27T01:06:25.702Z,15.39
2023-11-27T01:09:13.231Z,15.36
2023-11-27T01:12:00.724Z,15.35
2023-11-27T01:14:48.202Z,15.33
2023-11-27T01:17:35.821Z,15.32
2023-11-27T01:20:23.678Z,15.28
2023-11-27T01:23:11.191Z,15.31
2023-11-27T01:25:58.700Z,15.31
2023-11-27T01:28:46.209Z,15.28
2023-11-27T01:31:33.759Z,15.29
2023-11-27T01:34:21.323Z,15.29
2023-11-27T01:37:08.999Z,15.28
2023-11-27T01:39:56.547Z,15.29
2023-11-27T01:42:44.337Z,15.28
2023-11-27T01:45:33.734Z,15.29
2023-11-27T01:48:21.310Z,15.31
2023-11-27T01:51:09.395Z,15.33
2023-11-27T01:53:58.506Z,15.34
2023-11-27T01:56:48.327Z,15.37
2023-11-27T01:59:36.188Z,15.38
2023-11-27T02:02:24.842Z,15.38
2023-11-27T02:05:13.192Z,15.39
2023-11-27T02:08:00.736Z,15.41
2023-11-27T02:10:48.332Z,15.39
2023-11-27T02:13:36.144Z,15.41
2023-11-27T02:16:24.454Z,15.41
2023-11-27T02:19:12.722Z,15.39
2023-11-27T02:22:00.330Z,15.41
2023-11-27T02:24:48.135Z,15.42
2023-11-27T02:27:36.529Z,15.43
2023-11-27T02:30:24.048Z,15.37
2023-11-27T02:33:11.793Z,15.37
2023-11-27T02:35:59.335Z,15.39
2023-11-27T02:38:46.868Z,15.40
2023-11-27T02:41:40.142Z,15.41
2023-11-27T02:44:27.649Z,15.39
2023-11-27T02:47:15.204Z,15.39
2023-11-27T02:50:02.860Z,15.38
2023-11-27T02:52:51.156Z,15.36
2023-11-27T02:55:38.945Z,15.36
2023-11-27T02:58:26.519Z,15.35
2023-11-27T03:01:14.144Z,15.36
2023-11-27T03:04:01.797Z,15.38
2023-11-27T03:06:49.369Z,15.39
2023-11-27T03:09:38.216Z,15.38
2023-11-27T03:12:25.722Z,15.37
2023-11-27T03:15:13.259Z,15.32
2023-11-27T03:18:01.148Z,15.28
2023-11-27T03:20:48.796Z,15.17
2023-11-27T03:23:36.485Z,15.14
2023-11-27T03:26:24.015Z,15.07
2023-11-27T03:29:11.551Z,15.11
2023-11-27T03:32:00.100Z,15.16
2023-11-27T03:34:47.855Z,15.12
2023-11-27T03:37:35.368Z,15.17
2023-11-27T03:40:23.090Z,15.17
2023-11-27T03:43:10.636Z,15.18
2023-11-27T03:45:58.234Z,15.17
2023-11-27T03:48:45.850Z,15.15
2023-11-27T03:51:33.448Z,15.13
2023-11-27T03:54:21.044Z,15.12
2023-11-27T03:57:08.539Z,15.14
2023-11-27T03:59:56.053Z,15.17
2023-11-27T04:02:44.944Z,15.25
2023-11-27T04:05:32.490Z,15.21
2023-11-27T04:08:20.609Z,15.00
2023-11-27T04:11:14.594Z,15.11
2023-11-27T04:14:02.328Z,15.19
2023-11-27T04:16:49.945Z,15.22
2023-11-27T04:19:37.482Z,15.26
2023-11-27T04:22:25.847Z,15.26
2023-11-27T04:25:13.809Z,15.30
2023-11-27T04:28:01.428Z,15.22
2023-11-27T04:30:48.976Z,15.26
2023-11-27T04:33:36.506Z,15.28
2023-11-27T04:36:24.628Z,15.30
2023-11-27T04:39:12.527Z,15.30
2023-11-27T04:42:00.100Z,15.28
2023-11-27T04:44:48.016Z,15.28
2023-11-27T04:47:35.848Z,15.28
2023-11-27T04:50:23.375Z,15.28
2023-11-27T04:53:11.007Z,15.30
2023-11-27T04:55:58.496Z,15.33
2023-11-27T04:58:45.982Z,15.35
2023-11-27T05:01:33.886Z,15.38
2023-11-27T05:04:21.548Z,15.38
2023-11-27T05:07:09.258Z,15.42
2023-11-27T05:09:56.809Z,15.44
2023-11-27T05:12:46.282Z,15.45
2023-11-27T05:15:33.840Z,15.46
2023-11-27T05:18:21.354Z,15.46
2023-11-27T05:21:11.370Z,15.47
2023-11-27T05:23:58.901Z,15.46
2023-11-27T05:26:46.380Z,15.45
2023-11-27T05:29:33.903Z,15.41
2023-11-27T05:32:23.274Z,15.34
2023-11-27T05:35:10.869Z,15.36
2023-11-27T05:37:58.523Z,15.38
2023-11-27T05:40:47.208Z,15.39
2023-11-27T05:43:35.276Z,15.41
2023-11-27T05:46:22.896Z,15.41
2023-11-27T05:49:10.486Z,15.39
2023-11-27T05:51:59.194Z,15.37
2023-11-27T05:54:46.832Z,15.36
2023-11-27T05:57:35.659Z,15.37
2023-11-27T06:00:26.105Z,15.35
2023-11-27T06:03:14.463Z,15.35
2023-11-27T06:06:02.040Z,15.31
2023-11-27T06:08:49.849Z,15.27
2023-11-27T06:11:37.589Z,15.23
2023-11-27T06:14:25.117Z,15.23
2023-11-27T06:17:12.745Z,15.20
2023-11-27T06:20:00.337Z,15.18
2023-11-27T06:22:47.844Z,15.18
2023-11-27T06:25:36.826Z,15.19
2023-11-27T06:28:24.377Z,15.20
2023-11-27T06:31:12.504Z,15.21
2023-11-27T06:34:00.083Z,15.21
2023-11-27T06:36:47.672Z,15.21
2023-11-27T06:39:37.017Z,15.20
2023-11-27T06:42:24.755Z,15.18
2023-11-27T06:45:12.325Z,15.19
2023-11-27T06:47:59.989Z,15.18
2023-11-27T06:50:48.095Z,15.17
2023-11-27T06:53:35.626Z,15.17
2023-11-27T06:56:23.201Z,15.15
2023-11-27T06:59:10.819Z,15.14
2023-11-27T07:01:58.490Z,15.12
2023-11-27T07:04:46.158Z,15.05
2023-11-27T07:07:33.710Z,15.02
2023-11-27T07:10:21.304Z,15.03
2023-11-27T07:13:08.793Z,15.03
2023-11-27T07:15:57.118Z,15.04
2023-11-27T07:18:47.500Z,15.04
2023-11-27T07:21:35.543Z,15.06
2023-11-27T07:24:23.089Z,15.06
2023-11-27T07:27:10.605Z,15.06
2023-11-27T07:29:58.142Z,15.06
2023-11-27T07:32:46.846Z,15.05
2023-11-27T07:35:34.406Z,15.04
2023-11-27T07:38:22.190Z,15.03
2023-11-27T07:41:10.082Z,15.05
2023-11-27T07:43:59.106Z,15.07
2023-11-27T07:46:46.786Z,15.10
2023-11-27T07:49:34.392Z,15.10
2023-11-27T07:52:21.992Z,15.10
2023-11-27T07:55:14.013Z,15.10
2023-11-27T07:58:03.581Z,15.12
2023-11-27T08:00:51.579Z,15.13
2023-11-27T08:03:39.701Z,15.14
2023-11-27T08:06:27.267Z,15.15
2023-11-27T08:09:15.350Z,15.15
2023-11-27T08:12:02.923Z,15.14
2023-11-27T08:14:50.422Z,15.12
2023-11-27T08:17:37.976Z,15.12
2023-11-27T08:20:29.990Z,15.11
2023-11-27T08:23:17.809Z,15.13
2023-11-27T08:26:05.531Z,15.16
2023-11-27T08:28:53.045Z,15.17
2023-11-27T08:31:43.235Z,15.19
2023-11-27T08:34:30.898Z,15.20
2023-11-27T08:37:18.659Z,15.18
2023-11-27T08:40:14.566Z,15.20
2023-11-27T08:43:02.373Z,15.20
2023-11-27T08:45:50.343Z,15.17
2023-11-27T08:48:38.435Z,15.14
2023-11-27T08:51:26.770Z,15.16
2023-11-27T08:54:14.305Z,15.18
2023-11-27T08:57:01.876Z,15.16
2023-11-27T08:59:49.970Z,15.19
2023-11-27T09:02:39.480Z,15.20
2023-11-27T09:05:27.657Z,15.21
2023-11-27T09:08:16.689Z,14.92
2023-11-27T09:11:04.275Z,15.14
2023-11-27T09:13:51.843Z,15.25
2023-11-27T09:16:39.491Z,15.20
2023-11-27T09:19:28.096Z,15.28
2023-11-27T09:22:17.560Z,15.21
2023-11-27T09:25:09.558Z,15.22
2023-11-27T09:27:58.488Z,15.26
2023-11-27T09:30:46.170Z,15.24
2023-11-27T09:33:36.243Z,15.10
2023-11-27T09:36:23.913Z,15.06
2023-11-27T09:39:12.406Z,15.08
2023-11-27T09:42:00.494Z,14.89
2023-11-27T09:44:48.071Z,15.10
2023-11-27T09:47:35.747Z,15.12
2023-11-27T09:50:23.704Z,15.19
2023-11-27T09:53:12.021Z,15.23
2023-11-27T09:55:59.693Z,15.03
2023-11-27T09:58:47.631Z,15.01
2023-11-27T10:01:36.874Z,14.82
2023-11-27T10:04:26.454Z,15.08
2023-11-27T10:07:14.956Z,14.81
2023-11-27T10:10:11.349Z,14.81
2023-11-27T10:12:59.539Z,14.94
2023-11-27T10:15:50.349Z,15.05
2023-11-27T10:18:38.485Z,14.93
2023-11-27T10:21:26.568Z,14.80
2023-11-27T10:24:15.081Z,15.05
2023-11-27T10:27:08.951Z,15.11
2023-11-27T10:29:56.654Z,14.97
2023-11-27T10:32:45.287Z,14.94
2023-11-27T10:35:34.294Z,14.98
2023-11-27T10:38:22.133Z,14.84
2023-11-27T10:41:09.979Z,14.97
2023-11-27T10:43:59.401Z,14.97
2023-11-27T10:46:48.477Z,14.67
2023-11-27T10:49:38.083Z,14.98
2023-11-27T10:52:26.317Z,14.85
2023-11-27T10:55:18.502Z,14.80
2023-11-27T10:58:09.104Z,14.83
2023-11-27T11:00:58.445Z,14.89
2023-11-27T11:03:46.498Z,14.78
2023-11-27T11:06:34.667Z,14.92
2023-11-27T11:09:25.984Z,14.88
2023-11-27T11:12:13.736Z,14.81
2023-11-27T11:15:01.296Z,14.91
2023-11-27T11:18:01.629Z,14.98
2023-11-27T11:20:52.086Z,14.73
2023-11-27T11:23:43.170Z,14.94
2023-11-27T11:26:48.267Z,14.91
2023-11-27T11:29:37.477Z,14.91
2023-11-27T11:32:30.055Z,14.85
2023-11-27T11:35:19.475Z,14.93
2023-11-27T11:38:20.968Z,15.06
2023-11-27T11:41:10.941Z,15.07
2023-11-27T11:44:01.261Z,14.97
2023-11-27T11:46:52.724Z,15.03
2023-11-27T11:49:40.366Z,14.95
2023-11-27T11:52:27.969Z,14.94
2023-11-27T11:55:22.385Z,14.71
2023-11-27T11:58:29.721Z,14.92
2023-11-27T12:01:19.790Z,15.07
2023-11-27T12:04:09.816Z,15.02
2023-11-27T12:06:57.591Z,15.04
2023-11-27T12:09:48.706Z,15.10
2023-11-27T12:12:36.979Z,15.27
2023-11-27T12:15:26.032Z,15.11
2023-11-27T12:18:14.573Z,15.21
2023-11-27T12:21:06.352Z,15.21
2023-11-27T12:23:54.909Z,15.32
2023-11-27T12:26:42.743Z,15.38
2023-11-27T12:29:30.353Z,15.32
2023-11-27T12:32:21.660Z,15.16
2023-11-27T12:35:15.734Z,15.24
2023-11-27T12:38:04.974Z,15.35
2023-11-27T12:40:52.878Z,15.39
2023-11-27T12:43:43.341Z,15.25
2023-11-27T12:46:32.603Z,15.18
2023-11-27T12:49:20.890Z,14.98
2023-11-27T12:52:08.947Z,14.92
2023-11-27T12:54:57.143Z,14.90
2023-11-27T12:57:47.780Z,15.11
2023-11-27T13:00:35.317Z,15.05
2023-11-27T13:03:24.001Z,15.03
2023-11-27T13:06:11.585Z,15.02
2023-11-27T13:08:59.070Z,14.96
2023-11-27T13:11:46.640Z,14.93
2023-11-27T13:14:34.339Z,15.04
2023-11-27T13:17:23.222Z,15.14
2023-11-27T13:20:18.795Z,15.21
2023-11-27T13:23:06.343Z,15.24
2023-11-27T13:25:55.878Z,15.14
2023-11-27T13:28:44.232Z,15.31
2023-11-27T13:31:34.972Z,15.33
2023-11-27T13:34:33.772Z,15.38
2023-11-27T13:37:23.838Z,15.37
2023-11-27T13:40:12.478Z,15.37
2023-11-27T13:43:00.697Z,15.32
2023-11-27T13:45:50.394Z,15.41
2023-11-27T13:48:38.462Z,15.46
2023-11-27T13:51:32.340Z,15.48
2023-11-27T13:54:19.983Z,15.51
2023-11-27T13:57:10.271Z,15.48
2023-11-27T13:59:58.349Z,15.50
2023-11-27T14:02:46.747Z,15.52
2023-11-27T14:05:38.688Z,15.51
2023-11-27T14:08:46.885Z,15.51
2023-11-27T14:11:35.932Z,15.52
2023-11-27T14:14:27.145Z,15.53
2023-11-27T14:17:20.190Z,15.54
2023-11-27T14:20:26.665Z,15.55
2023-11-27T14:23:26.528Z,15.55
2023-11-27T14:26:23.891Z,15.57
2023-11-27T14:29:20.038Z,15.59
2023-11-27T14:32:09.038Z,15.59
2023-11-27T14:34:56.610Z,15.61
2023-11-27T14:37:44.259Z,15.63
2023-11-27T14:40:32.501Z,15.64
2023-11-27T14:43:23.206Z,15.64
2023-11-27T14:46:16.180Z,15.63
2023-11-27T14:49:06.746Z,15.64
2023-11-27T14:52:00.285Z,15.63
2023-11-27T14:54:47.922Z,15.62
2023-11-27T14:57:35.523Z,15.65
2023-11-27T15:00:28.840Z,15.63
2023-11-27T15:03:20.894Z,15.65
2023-11-27T15:06:09.208Z,15.64
2023-11-27T15:09:00.708Z,15.64
2023-11-27T15:11:52.254Z,15.65
2023-11-27T15:14:41.314Z,15.63
2023-11-27T15:17:29.170Z,15.62
2023-11-27T15:20:20.482Z,15.60
2023-11-27T15:23:08.876Z,15.59
2023-11-27T15:25:56.467Z,15.59
2023-11-27T15:28:44.081Z,15.56
2023-11-27T15:31:32.529Z,15.39
2023-11-27T15:34:21.081Z,15.54
2023-11-27T15:37:08.680Z,15.48
2023-11-27T15:39:59.127Z,15.45
2023-11-27T15:42:46.772Z,15.47
2023-11-27T15:45:34.297Z,15.48
2023-11-27T15:48:21.933Z,15.46
2023-11-27T15:51:09.709Z,15.47
2023-11-27T15:53:57.228Z,15.49
2023-11-27T15:56:44.782Z,15.47
2023-11-27T15:59:32.310Z,15.45
2023-11-27T16:02:22.103Z,15.43
2023-11-27T16:05:10.583Z,15.44
2023-11-27T16:08:00.620Z,15.44
2023-11-27T16:10:50.013Z,15.46
2023-11-27T16:13:37.796Z,15.47
2023-11-27T16:16:26.112Z,15.49
2023-11-27T16:19:14.509Z,15.50
2023-11-27T16:22:02.188Z,15.50
2023-11-27T16:24:49.984Z,15.50
2023-11-27T16:27:37.495Z,15.49
2023-11-27T16:30:25.228Z,15.48
2023-11-27T16:33:12.765Z,15.49
2023-11-27T16:36:01.166Z,15.50
2023-11-27T16:38:48.785Z,15.49
2023-11-27T16:41:36.328Z,15.48
2023-11-27T16:44:23.913Z,15.49
2023-11-27T16:47:20.263Z,15.47
2023-11-27T16:50:15.947Z,15.46
2023-11-27T16:53:04.382Z,15.45
2023-11-27T16:55:53.758Z,15.47
2023-11-27T16:58:41.401Z,15.45
2023-11-27T17:01:29.557Z,15.47
2023-11-27T17:04:17.678Z,15.47
2023-11-27T17:07:05.366Z,15.47
2023-11-27T17:09:52.833Z,15.44
2023-11-27T17:12:40.382Z,15.39
2023-11-27T17:15:29.177Z,15.35
2023-11-27T17:18:17.374Z,15.27
2023-11-27T17:21:05.223Z,15.29
2023-11-27T17:23:52.816Z,15.29
2023-11-27T17:26:40.327Z,15.31
2023-11-27T17:29:27.878Z,15.30
2023-11-27T17:32:17.237Z,15.32
2023-11-27T17:35:06.602Z,15.33
2023-11-27T17:37:54.121Z,15.36
2023-11-27T17:40:42.758Z,15.35
2023-11-27T17:43:30.990Z,15.32
2023-11-27T17:46:18.817Z,15.35
2023-11-27T17:49:06.418Z,15.38
2023-11-27T17:51:56.545Z,15.37
2023-11-27T17:54:44.060Z,15.37
2023-11-27T17:57:31.830Z,15.37
2023-11-27T18:00:20.556Z,15.35
2023-11-27T18:03:08.575Z,15.34
2023-11-27T18:05:56.134Z,15.34
2023-11-27T18:08:43.982Z,15.35
2023-11-27T18:11:31.478Z,15.35
2023-11-27T18:14:19.327Z,15.36
2023-11-27T18:17:06.951Z,15.38
2023-11-27T18:19:54.618Z,15.38
2023-11-27T18:22:43.292Z,15.39
2023-11-27T18:25:30.863Z,15.42
2023-11-27T18:28:18.459Z,15.37
2023-11-27T18:31:06.321Z,15.21
2023-11-27T18:33:53.820Z,15.21
2023-11-27T18:36:41.378Z,15.25
2023-11-27T18:39:31.606Z,15.28
2023-11-27T18:42:21.867Z,15.30
2023-11-27T18:45:12.150Z,15.32
2023-11-27T18:48:01.853Z,15.34
2023-11-27T18:50:49.590Z,15.30
2023-11-27T18:53:37.200Z,15.29
2023-11-27T18:56:24.716Z,15.29
2023-11-27T18:59:13.518Z,15.29
2023-11-27T19:02:01.236Z,15.28
2023-11-27T19:04:49.023Z,15.24
2023-11-27T19:07:36.620Z,15.22
2023-11-27T19:10:25.179Z,15.24
2023-11-27T19:13:12.918Z,15.24
2023-11-27T19:16:00.519Z,15.25
2023-11-27T19:18:52.137Z,15.25
2023-11-27T19:21:40.346Z,15.27
2023-11-27T19:24:30.438Z,15.27
2023-11-27T19:27:18.156Z,15.28
2023-11-27T19:30:09.720Z,15.28
2023-11-27T19:32:57.498Z,15.27
2023-11-27T19:35:45.414Z,15.25
2023-11-27T19:38:33.976Z,15.25
2023-11-27T19:41:23.540Z,15.28
2023-11-27T19:44:11.056Z,15.26
2023-11-27T19:46:58.959Z,15.19
2023-11-27T19:49:47.846Z,15.21
2023-11-27T19:52:35.501Z,15.23
2023-11-27T19:55:23.083Z,15.24
2023-11-27T19:58:11.189Z,15.21
2023-11-27T20:00:58.795Z,15.24
2023-11-27T20:03:46.350Z,15.27
2023-11-27T20:06:33.972Z,15.29
2023-11-27T20:09:22.048Z,15.30
2023-11-27T20:12:12.933Z,15.30
2023-11-27T20:15:00.521Z,15.30
2023-11-27T20:17:48.537Z,15.31
2023-11-27T20:20:36.160Z,15.31
2023-11-27T20:23:25.326Z,15.32
2023-11-27T20:26:12.914Z,15.32
2023-11-27T20:29:05.759Z,15.33
2023-11-27T20:31:53.660Z,15.31
2023-11-27T20:34:41.857Z,15.30
2023-11-27T20:37:29.647Z,15.31
2023-11-27T20:40:18.402Z,15.31
2023-11-27T20:43:07.439Z,15.32
2023-11-27T20:45:55.261Z,15.32
2023-11-27T20:48:42.935Z,15.33
2023-11-27T20:51:30.839Z,15.33
2023-11-27T20:54:18.364Z,15.34
2023-11-27T20:57:06.460Z,15.33
2023-11-27T20:59:54.056Z,15.31
2023-11-27T21:02:43.841Z,15.32
2023-11-27T21:05:32.114Z,15.30
2023-11-27T21:08:20.597Z,15.27
2023-11-27T21:11:08.126Z,15.29
2023-11-27T21:13:56.385Z,15.29
2023-11-27T21:16:44.493Z,15.28
2023-11-27T21:19:32.304Z,15.27
2023-11-27T21:22:20.574Z,15.24
2023-11-27T21:25:08.940Z,15.25
2023-11-27T21:27:59.183Z,15.26
2023-11-27T21:30:46.767Z,15.26
2023-11-27T21:33:34.288Z,15.27
2023-11-27T21:36:22.429Z,15.26
2023-11-27T21:39:09.934Z,15.26
2023-11-27T21:41:57.459Z,15.27
2023-11-27T21:44:44.943Z,15.28
2023-11-27T21:47:32.965Z,15.29
2023-11-27T21:50:21.811Z,15.30
2023-11-27T21:53:09.396Z,15.31
2023-11-27T21:55:56.979Z,15.31
2023-11-27T21:58:44.568Z,15.33
2023-11-27T22:01:32.673Z,15.34
2023-11-27T22:04:20.346Z,15.36
2023-11-27T22:07:07.883Z,15.36
2023-11-27T22:09:55.444Z,15.35
2023-11-27T22:12:42.936Z,15.36
2023-11-27T22:15:30.732Z,15.36
2023-11-27T22:18:18.263Z,15.37
2023-11-27T22:21:05.941Z,15.37
2023-11-27T22:23:53.426Z,15.39
2023-11-27T22:26:42.204Z,15.39
2023-11-27T22:29:30.833Z,15.41
2023-11-27T22:32:19.117Z,15.41
2023-11-27T22:35:06.916Z,15.40
2023-11-27T22:37:54.914Z,15.39
2023-11-27T22:40:42.652Z,15.37
2023-11-27T22:43:30.219Z,15.37
2023-11-27T22:46:17.739Z,15.37
2023-11-27T22:49:05.675Z,15.38
2023-11-27T22:51:53.295Z,15.38
2023-11-27T22:54:43.006Z,15.39
2023-11-27T22:57:30.718Z,15.38
2023-11-27T23:00:22.652Z,15.39
2023-11-27T23:03:10.307Z,15.41
2023-11-27T23:05:57.938Z,15.42
2023-11-27T23:08:45.502Z,15.43
2023-11-27T23:11:33.096Z,15.42
2023-11-27T23:14:20.713Z,15.41
2023-11-27T23:17:08.293Z,15.41
2023-11-27T23:19:55.873Z,15.38
2023-11-27T23:22:43.448Z,15.37
2023-11-27T23:25:31.383Z,15.37
2023-11-27T23:28:18.899Z,15.36
2023-11-27T23:31:06.803Z,15.37
2023-11-27T23:33:54.594Z,15.38
2023-11-27T23:36:42.385Z,15.36
2023-11-27T23:39:29.919Z,15.37
2023-11-27T23:42:17.413Z,15.39
2023-11-27T23:45:05.153Z,15.39
2023-11-27T23:47:53.193Z,15.42
2023-11-27T23:50:44.070Z,15.42
2023-11-27T23:53:31.801Z,15.39
2023-11-27T23:56:19.336Z,15.41
2023-11-27T23:59:07.066Z,15.41
